Terminal Aerodrome Forecast
Issued by NWS

Home | Current Version | Previous Version | Text Only | Print | Product List | Glossary On
Versions: 1 2 3 4 5 6 7 8 9 10 11 12
000
FTUS44 KLZK 251140
TAFHOT
TAF
KHOT 251140Z 2512/2612 VRB04KT P6SM SCT250
     FM251800 18005KT P6SM SCT050 BKN120
     FM260300 34006KT P6SM VCSH BKN050 OVC100 PROB30 2606/2612 6SM
      -TSRA BKN035CB=

USA.gov is the U.S. government's official web portal to all federal, state and local government web resources and services.